Terminal Aerodrome Forecast
Issued by NWS Mt. Holly, NJ

Home | Current Version | Previous Version | Text Only | Print | Product List | Glossary On
Versions: 1 2 3 4 5 6 7 8 9 10 11 12 13 14 15 16 17 18 19 20 21 22 23 24 25 26 27 28 29 30 31 32 33
662
FTUS41 KPHI 231724
TAFPHL
TAF
KPHL 231724Z 2318/2424 08008KT 2SM -DZ BR OVC007
     FM232100 12006KT 5SM BR OVC007
      TEMPO 2322/2324 2SM -RA BR
     FM240100 VRB03KT 2SM BR OVC005
      TEMPO 2409/2413 1/2SM FG
     FM241300 35004KT 3SM BR SCT005 OVC010
     FM241600 01005KT P6SM BKN025 OVC045
     FM242000 03005KT P6SM OVC035=

USA.gov is the U.S. government's official web portal to all federal, state and local government web resources and services.